createdAt,value
2022-08-03T00:00:32.679Z,83.20
2022-08-03T00:03:00.258Z,91.60
2022-08-03T00:05:27.857Z,95.10
2022-08-03T00:07:55.420Z,76.00
2022-08-03T00:10:23.714Z,76.30
2022-08-03T00:12:51.203Z,76.80
2022-08-03T00:15:19.237Z,76.90
2022-08-03T00:17:53.553Z,77.20
2022-08-03T00:20:25.385Z,77.10
2022-08-03T00:22:52.865Z,77.30
2022-08-03T00:25:20.530Z,77.40
2022-08-03T00:27:48.468Z,77.80
2022-08-03T00:30:18.666Z,78.00
2022-08-03T00:32:47.558Z,78.50
2022-08-03T00:35:36.929Z,78.80
2022-08-03T00:38:03.927Z,79.40
2022-08-03T00:40:33.199Z,79.60
2022-08-03T00:43:05.835Z,80.20
2022-08-03T00:45:39.852Z,80.50
2022-08-03T00:48:29.767Z,80.90
2022-08-03T00:51:00.205Z,81.30
2022-08-03T00:53:28.895Z,81.60
2022-08-03T00:55:56.538Z,82.00
2022-08-03T00:58:24.683Z,82.40
2022-08-03T01:00:52.443Z,82.40
2022-08-03T01:03:20.190Z,82.60
2022-08-03T01:06:08.631Z,82.60
2022-08-03T01:08:58.165Z,82.70
2022-08-03T01:11:59.938Z,82.60
2022-08-03T01:14:47.435Z,82.70
2022-08-03T01:17:28.993Z,82.30
2022-08-03T01:20:13.940Z,82.50
2022-08-03T01:23:13.418Z,82.10
2022-08-03T01:26:04.735Z,81.80
2022-08-03T01:28:59.721Z,81.80
2022-08-03T01:33:00.340Z,82.70
2022-08-03T01:34:35.807Z,81.60
2022-08-03T01:37:09.559Z,81.60
2022-08-03T01:39:41.414Z,81.30
2022-08-03T01:42:10.954Z,81.20
2022-08-03T01:44:44.385Z,81.00
2022-08-03T01:47:13.079Z,81.30
2022-08-03T01:49:45.461Z,81.30
2022-08-03T01:52:17.895Z,81.80
2022-08-03T01:54:50.262Z,82.30
2022-08-03T01:57:19.883Z,82.70
2022-08-03T01:59:50.149Z,82.70
2022-08-03T02:02:32.235Z,82.50
2022-08-03T02:05:05.119Z,82.30
2022-08-03T02:07:40.581Z,82.20
2022-08-03T02:10:09.503Z,82.00
2022-08-03T02:12:39.107Z,82.00
2022-08-03T02:15:08.413Z,81.80
2022-08-03T02:17:40.315Z,81.90
2022-08-03T02:20:10.900Z,82.30
2022-08-03T02:22:41.823Z,82.30
2022-08-03T02:25:12.083Z,82.60
2022-08-03T02:27:49.011Z,82.60
2022-08-03T02:30:16.902Z,83.30
2022-08-03T02:32:52.476Z,83.60
2022-08-03T02:35:23.559Z,84.10
2022-08-03T02:38:00.431Z,84.60
2022-08-03T02:40:31.320Z,85.00
2022-08-03T02:43:04.224Z,85.20
2022-08-03T02:45:36.488Z,85.30
2022-08-03T02:48:07.303Z,85.30
2022-08-03T02:50:36.352Z,85.30
2022-08-03T02:53:04.846Z,85.70
2022-08-03T02:55:35.758Z,85.10
2022-08-03T02:58:12.821Z,85.10
2022-08-03T03:00:44.764Z,84.90
2022-08-03T03:03:14.842Z,85.00
2022-08-03T03:05:52.289Z,85.00
2022-08-03T03:08:28.856Z,84.80
2022-08-03T03:11:02.185Z,84.60
2022-08-03T03:13:32.105Z,84.50
2022-08-03T03:16:03.085Z,84.30
2022-08-03T03:18:33.578Z,84.50
2022-08-03T03:21:04.313Z,84.50
2022-08-03T03:23:36.371Z,84.50
2022-08-03T03:26:04.979Z,84.50
2022-08-03T03:28:32.839Z,84.30
2022-08-03T03:31:01.060Z,84.20
2022-08-03T03:33:28.854Z,84.00
2022-08-03T03:35:58.147Z,84.00
2022-08-03T03:38:25.601Z,83.90
2022-08-03T03:40:53.571Z,83.70
2022-08-03T03:43:23.655Z,84.10
2022-08-03T03:45:53.983Z,83.70
2022-08-03T03:48:21.999Z,83.50
2022-08-03T03:50:51.065Z,83.20
2022-08-03T03:53:19.126Z,82.70
2022-08-03T03:55:59.389Z,82.60
2022-08-03T03:58:32.137Z,82.60
2022-08-03T04:01:00.520Z,82.50
2022-08-03T04:03:28.570Z,82.80
2022-08-03T04:06:14.770Z,83.10
2022-08-03T04:09:00.613Z,83.50
2022-08-03T04:11:39.996Z,84.10
2022-08-03T04:14:13.819Z,84.50
2022-08-03T04:16:46.802Z,84.80
2022-08-03T04:19:31.431Z,84.90
2022-08-03T04:22:04.730Z,85.00
2022-08-03T04:24:43.151Z,85.20
2022-08-03T04:27:15.833Z,85.60
2022-08-03T04:29:48.793Z,85.60
2022-08-03T04:32:18.007Z,85.50
2022-08-03T04:34:46.483Z,85.50
2022-08-03T04:37:43.731Z,85.50
2022-08-03T04:40:16.452Z,86.20
2022-08-03T04:42:51.536Z,91.60
2022-08-03T05:08:15.518Z,83.60
2022-08-03T05:10:47.301Z,84.60
2022-08-03T05:13:15.431Z,84.40
2022-08-03T05:15:45.433Z,84.00
2022-08-03T05:18:14.314Z,84.00
2022-08-03T05:20:42.444Z,83.80
2022-08-03T05:23:09.847Z,82.90
2022-08-03T05:25:37.208Z,82.80
2022-08-03T05:28:07.019Z,82.00
2022-08-03T05:33:05.045Z,79.80
2022-08-03T05:36:01.223Z,79.50
2022-08-03T05:38:28.036Z,78.10
2022-08-03T05:41:22.814Z,76.70
2022-08-03T05:43:46.283Z,76.20
2022-08-03T05:46:14.520Z,75.90
2022-08-03T05:48:43.574Z,75.50
2022-08-03T05:51:14.122Z,74.90
2022-08-03T05:53:43.019Z,74.70
2022-08-03T05:56:14.119Z,74.30
2022-08-03T05:58:49.439Z,74.10
2022-08-03T06:01:18.181Z,73.50
2022-08-03T06:03:46.904Z,73.20
2022-08-03T06:28:54.396Z,67.40
2022-08-03T06:36:40.909Z,66.20
2022-08-03T06:39:08.665Z,67.20
2022-08-03T06:41:37.430Z,64.70
2022-08-03T06:44:10.414Z,63.90
2022-08-03T08:50:30.991Z,38.00
2022-08-03T08:53:04.037Z,37.70
2022-08-03T08:55:58.730Z,37.60
2022-08-03T08:58:23.689Z,38.60
2022-08-03T09:08:31.195Z,35.50
2022-08-03T09:10:58.764Z,36.00
2022-08-03T09:13:26.678Z,36.00
2022-08-03T09:21:33.333Z,36.50
2022-08-03T09:24:07.119Z,36.60
2022-08-03T09:26:39.026Z,35.70
2022-08-03T09:29:14.353Z,36.40
2022-08-03T09:34:17.901Z,36.10
2022-08-03T09:36:47.657Z,34.80
2022-08-03T09:39:21.514Z,35.00
2022-08-03T09:42:18.350Z,33.00
2022-08-03T09:44:51.832Z,33.30
2022-08-03T09:47:32.762Z,33.80
2022-08-03T09:50:09.153Z,33.60
2022-08-03T09:52:49.702Z,33.20
2022-08-03T09:56:34.962Z,33.70
2022-08-03T09:58:14.611Z,32.50
2022-08-03T10:01:05.245Z,33.00
2022-08-03T10:04:03.276Z,32.80
2022-08-03T10:06:28.861Z,33.20
2022-08-03T10:09:07.188Z,35.00
2022-08-03T10:11:40.892Z,32.50
2022-08-03T10:14:19.171Z,32.70
2022-08-03T10:16:48.648Z,32.70
2022-08-03T10:19:16.970Z,31.70
2022-08-03T10:21:54.490Z,32.40
2022-08-03T10:24:29.102Z,33.40
2022-08-03T10:27:05.811Z,33.80
2022-08-03T10:29:39.516Z,33.90
2022-08-03T10:32:43.646Z,32.60
2022-08-03T10:35:21.634Z,34.30
2022-08-03T10:38:00.418Z,32.30
2022-08-03T10:40:49.367Z,30.30
2022-08-03T10:43:29.152Z,30.10
2022-08-03T10:45:57.291Z,29.90
2022-08-03T10:48:26.708Z,30.80
2022-08-03T10:50:54.928Z,32.60
2022-08-03T10:53:40.684Z,30.30
2022-08-03T10:56:53.410Z,32.00
2022-08-03T11:00:02.969Z,31.80
2022-08-03T11:03:09.626Z,30.70
2022-08-03T11:05:41.757Z,30.40
2022-08-03T11:08:31.616Z,30.60
2022-08-03T11:11:24.314Z,29.10
2022-08-03T11:14:11.525Z,30.20
2022-08-03T11:16:46.153Z,29.80
2022-08-03T11:19:20.966Z,30.50
2022-08-03T11:21:51.495Z,31.80
2022-08-03T11:24:37.565Z,29.90
2022-08-03T11:27:33.166Z,29.40
2022-08-03T11:30:03.499Z,29.50
2022-08-03T11:32:48.289Z,29.70
2022-08-03T11:35:35.793Z,29.50
2022-08-03T11:38:07.446Z,30.00
2022-08-03T11:40:40.797Z,29.50
2022-08-03T11:43:31.958Z,29.10
2022-08-03T11:46:28.650Z,29.10
2022-08-03T11:49:10.481Z,29.30
2022-08-03T11:51:41.048Z,29.20
2022-08-03T11:54:08.961Z,28.80
2022-08-03T11:56:50.800Z,28.10
2022-08-03T11:59:22.192Z,27.60
2022-08-03T12:01:51.380Z,28.80
2022-08-03T12:04:19.364Z,28.00
2022-08-03T12:07:07.123Z,28.50
2022-08-03T12:09:36.358Z,28.30
2022-08-03T12:12:04.312Z,29.20
2022-08-03T12:14:48.492Z,28.80
2022-08-03T12:17:17.779Z,28.70
2022-08-03T12:19:45.735Z,28.40
2022-08-03T12:22:16.340Z,28.90
2022-08-03T12:24:46.787Z,28.50
2022-08-03T12:27:25.451Z,27.90
2022-08-03T12:29:58.761Z,29.80
2022-08-03T12:32:31.192Z,29.20
2022-08-03T12:35:01.881Z,28.40
2022-08-03T12:37:30.233Z,27.90
2022-08-03T12:40:10.120Z,27.80
2022-08-03T12:42:40.647Z,28.10
2022-08-03T12:45:29.423Z,27.40
2022-08-03T12:50:36.387Z,26.70
2022-08-03T12:53:07.848Z,27.20
2022-08-03T12:55:57.267Z,27.30
2022-08-03T13:14:23.703Z,58.80
2022-08-03T13:16:51.471Z,52.20
2022-08-03T13:19:19.099Z,49.60
2022-08-03T13:21:53.362Z,48.90
2022-08-03T13:24:32.975Z,52.40
2022-08-03T13:29:49.256Z,54.70
2022-08-03T13:32:16.955Z,51.40
2022-08-03T13:34:44.593Z,50.20
2022-08-03T13:37:12.560Z,47.00
2022-08-03T13:39:58.025Z,45.60
2022-08-03T13:42:30.179Z,41.20
2022-08-03T13:44:57.970Z,45.80
2022-08-03T13:47:25.806Z,51.10
2022-08-03T13:49:59.610Z,50.10
2022-08-03T13:52:32.091Z,47.20
2022-08-03T13:55:00.371Z,47.80
2022-08-03T13:58:04.084Z,46.30
2022-08-03T14:00:27.532Z,28.50
2022-08-03T14:03:04.065Z,26.70
2022-08-03T14:05:36.107Z,27.40
2022-08-03T14:08:06.485Z,46.60
2022-08-03T14:10:40.526Z,27.30
2022-08-03T14:13:08.688Z,48.90
2022-08-03T14:15:37.742Z,28.40
2022-08-03T14:18:12.617Z,28.10
2022-08-03T14:23:22.085Z,54.60
2022-08-03T14:25:52.814Z,48.70
2022-08-03T14:28:25.144Z,26.50
2022-08-03T14:30:54.731Z,26.70
2022-08-03T14:33:22.925Z,26.70
2022-08-03T14:35:52.028Z,27.20
2022-08-03T14:38:20.022Z,27.80
2022-08-03T14:40:49.434Z,28.00
2022-08-03T14:43:23.209Z,28.10
2022-08-03T14:45:53.816Z,28.40
2022-08-03T14:50:30.653Z,29.30
2022-08-03T14:51:11.937Z,28.30
2022-08-03T14:53:40.260Z,27.60
2022-08-03T14:56:10.747Z,27.70
2022-08-03T14:58:38.946Z,29.90
2022-08-03T15:02:04.776Z,27.50
2022-08-03T15:03:55.208Z,28.20
2022-08-03T15:06:22.926Z,28.60
2022-08-03T15:09:06.308Z,28.50
2022-08-03T15:11:38.898Z,28.50
2022-08-03T15:14:09.438Z,28.40
2022-08-03T15:16:38.637Z,28.00
2022-08-03T15:20:01.682Z,28.40
2022-08-03T15:21:53.993Z,27.90
2022-08-03T15:24:21.904Z,28.10
2022-08-03T15:26:49.671Z,27.80
2022-08-03T15:30:09.363Z,42.40
2022-08-03T15:32:09.137Z,28.50
2022-08-03T15:34:37.273Z,28.50
2022-08-03T15:37:16.375Z,29.80
2022-08-03T15:39:59.518Z,28.80
2022-08-03T15:42:33.197Z,29.30
2022-08-03T15:45:03.908Z,29.00
2022-08-03T15:47:34.380Z,29.10
2022-08-03T15:50:05.336Z,29.50
2022-08-03T15:52:35.607Z,29.70
2022-08-03T15:55:03.497Z,30.10
2022-08-03T15:57:31.064Z,30.10
2022-08-03T16:00:01.302Z,31.20
2022-08-03T16:02:28.869Z,30.20
2022-08-03T16:04:56.280Z,31.40
2022-08-03T16:07:59.044Z,30.30
2022-08-03T16:10:30.768Z,31.40
2022-08-03T16:13:01.274Z,30.90
2022-08-03T16:15:29.183Z,31.60
2022-08-03T16:17:56.945Z,30.50
2022-08-03T16:20:30.827Z,30.50
2022-08-03T16:23:11.580Z,31.70
2022-08-03T16:25:49.232Z,31.90
2022-08-03T16:28:17.850Z,33.10
2022-08-03T16:30:46.923Z,32.00
2022-08-03T16:33:17.819Z,31.40
2022-08-03T16:35:47.113Z,31.80
2022-08-03T16:38:18.869Z,31.10
2022-08-03T16:40:52.210Z,31.80
2022-08-03T16:43:23.010Z,31.90
2022-08-03T16:45:51.465Z,31.40
2022-08-03T16:48:19.686Z,31.20
2022-08-03T16:50:48.105Z,33.10
2022-08-03T16:53:18.586Z,33.20
2022-08-03T16:56:02.995Z,33.00
2022-08-03T16:58:42.689Z,33.10
2022-08-03T17:01:21.021Z,32.90
2022-08-03T17:04:03.463Z,33.80
2022-08-03T17:06:37.593Z,35.20
2022-08-03T17:09:15.385Z,35.00
2022-08-03T17:11:48.358Z,36.40
2022-08-03T17:14:21.986Z,37.00
2022-08-03T17:16:53.769Z,35.80
2022-08-03T17:19:25.485Z,36.20
2022-08-03T17:22:15.784Z,36.70
2022-08-03T17:24:53.267Z,37.50
2022-08-03T17:28:51.369Z,38.30
2022-08-03T17:30:19.066Z,41.10
2022-08-03T17:32:57.863Z,39.30
2022-08-03T17:35:35.551Z,41.60
2022-08-03T17:38:08.996Z,42.60
2022-08-03T17:40:48.124Z,43.00
2022-08-03T17:48:58.623Z,43.60
2022-08-03T17:51:46.159Z,43.20
2022-08-03T17:55:50.736Z,44.40
2022-08-03T17:58:02.331Z,44.20
2022-08-03T18:00:51.623Z,45.40
2022-08-03T18:04:00.006Z,45.90
2022-08-03T18:06:32.123Z,45.80
2022-08-03T18:09:05.079Z,48.00
2022-08-03T18:11:59.368Z,47.10
2022-08-03T18:14:57.646Z,48.10
2022-08-03T18:17:55.411Z,47.60
2022-08-03T18:20:31.229Z,48.80
2022-08-03T18:23:07.264Z,50.10
2022-08-03T18:25:44.467Z,49.80
2022-08-03T18:28:23.086Z,49.80
2022-08-03T18:30:53.883Z,50.00
2022-08-03T18:36:30.890Z,52.50
2022-08-03T18:39:03.713Z,54.20
2022-08-03T18:41:35.364Z,54.00
2022-08-03T18:44:09.648Z,54.70
2022-08-03T18:47:17.728Z,54.20
2022-08-03T18:50:09.903Z,54.30
2022-08-03T18:52:55.685Z,54.00
2022-08-03T18:55:36.037Z,54.40
2022-08-03T18:58:15.758Z,54.50
2022-08-03T19:01:05.653Z,54.60
2022-08-03T19:03:58.698Z,54.70
2022-08-03T19:06:29.378Z,55.10
2022-08-03T19:09:05.582Z,55.60
2022-08-03T19:12:26.179Z,55.90
2022-08-03T19:15:04.767Z,56.00
2022-08-03T19:17:36.406Z,56.00
2022-08-03T19:20:09.392Z,56.90
2022-08-03T19:22:39.847Z,57.60
2022-08-03T19:25:13.669Z,58.10
2022-08-03T19:27:43.455Z,58.40
2022-08-03T19:30:21.965Z,59.10
2022-08-03T19:32:55.587Z,59.10
2022-08-03T19:35:49.741Z,59.40
2022-08-03T19:38:12.306Z,59.90
2022-08-03T19:40:51.021Z,60.20
2022-08-03T19:43:32.991Z,60.60
2022-08-03T19:46:16.307Z,61.20
2022-08-03T19:48:54.571Z,61.50
2022-08-03T19:51:58.495Z,62.00
2022-08-03T19:54:15.627Z,62.80
2022-08-03T19:56:49.239Z,62.80
2022-08-03T19:59:19.941Z,62.90
2022-08-03T20:01:50.715Z,63.20
2022-08-03T20:04:18.962Z,62.90
2022-08-03T20:06:50.272Z,63.30
2022-08-03T20:09:20.294Z,63.40
2022-08-03T20:11:48.706Z,62.90
2022-08-03T20:14:20.746Z,63.30
2022-08-03T20:16:54.565Z,63.00
2022-08-03T20:19:24.299Z,63.40
2022-08-03T20:22:00.368Z,63.10
2022-08-03T20:24:32.742Z,64.00
2022-08-03T20:27:07.923Z,64.90
2022-08-03T20:30:06.813Z,65.70
2022-08-03T20:32:30.917Z,65.90
2022-08-03T20:34:59.876Z,66.90
2022-08-03T20:37:27.384Z,67.50
2022-08-03T20:40:00.319Z,66.70
2022-08-03T20:42:27.984Z,66.70
2022-08-03T20:45:06.149Z,67.20
2022-08-03T20:47:50.964Z,67.20
2022-08-03T20:50:22.527Z,66.80
2022-08-03T20:52:50.697Z,67.30
2022-08-03T20:55:20.470Z,67.80
2022-08-03T20:58:07.885Z,68.10
2022-08-03T21:00:36.711Z,69.00
2022-08-03T21:03:04.639Z,69.60
2022-08-03T21:05:48.462Z,70.20
2022-08-03T21:08:22.226Z,71.00
2022-08-03T21:10:50.545Z,70.60
2022-08-03T21:13:04.063Z,50.30
2022-08-03T21:13:05.447Z,44.10
2022-08-03T21:13:05.925Z,43.50
2022-08-03T21:13:29.126Z,71.20
2022-08-03T21:16:11.322Z,71.70
2022-08-03T21:18:47.672Z,72.00
2022-08-03T21:21:17.758Z,72.80
2022-08-03T21:23:50.009Z,73.30
2022-08-03T21:26:24.026Z,73.10
2022-08-03T21:28:55.142Z,73.10
2022-08-03T21:31:26.500Z,73.00
2022-08-03T21:33:58.791Z,72.80
2022-08-03T21:36:34.439Z,73.60
2022-08-03T21:39:05.072Z,72.90
2022-08-03T21:41:33.494Z,72.90
2022-08-03T21:44:02.703Z,73.50
2022-08-03T21:46:41.587Z,73.50
2022-08-03T21:50:06.894Z,73.10
2022-08-03T21:52:05.128Z,73.20
2022-08-03T21:54:43.632Z,73.20
2022-08-03T21:57:25.508Z,73.10
2022-08-03T22:00:05.708Z,73.50
2022-08-03T22:02:53.031Z,73.60
2022-08-03T22:05:28.880Z,73.80
2022-08-03T22:08:14.409Z,74.30
2022-08-03T22:10:45.576Z,74.80
2022-08-03T22:13:43.268Z,75.00
2022-08-03T22:16:08.771Z,75.00
2022-08-03T22:18:43.702Z,74.80
2022-08-03T22:21:15.219Z,74.70
2022-08-03T22:23:49.961Z,74.70
2022-08-03T22:26:32.466Z,74.70
2022-08-03T22:29:08.615Z,75.40
2022-08-03T22:31:58.836Z,75.80
2022-08-03T22:34:27.501Z,75.60
2022-08-03T22:37:02.458Z,75.40
2022-08-03T22:39:30.883Z,75.10
2022-08-03T22:42:01.435Z,74.70
2022-08-03T22:44:30.092Z,74.50
2022-08-03T22:46:58.994Z,74.80
2022-08-03T22:49:29.344Z,76.20
2022-08-03T22:51:58.533Z,75.50
2022-08-03T22:54:26.031Z,75.70
2022-08-03T22:56:53.746Z,76.20
2022-08-03T22:59:41.075Z,76.40
2022-08-03T23:02:21.174Z,77.00
2022-08-03T23:05:04.130Z,76.90
2022-08-03T23:07:35.292Z,77.20
2022-08-03T23:10:12.837Z,77.60
2022-08-03T23:12:43.277Z,77.90
2022-08-03T23:15:13.709Z,77.70
2022-08-03T23:17:57.702Z,77.70
2022-08-03T23:20:28.884Z,77.90
2022-08-03T23:22:58.193Z,78.20
2022-08-03T23:25:25.892Z,78.40
2022-08-03T23:28:05.945Z,78.40
2022-08-03T23:30:37.884Z,78.50
2022-08-03T23:33:08.827Z,78.30
2022-08-03T23:36:28.779Z,77.90
2022-08-03T23:38:45.235Z,78.30
2022-08-03T23:41:13.946Z,78.50
2022-08-03T23:43:51.167Z,78.90
2022-08-03T23:46:24.365Z,78.50
2022-08-03T23:48:52.015Z,78.90
2022-08-03T23:51:53.195Z,79.20
2022-08-03T23:54:42.356Z,79.70
2022-08-03T23:57:27.248Z,79.80
